• Join FlightAware (Why Join?)
  • Login
  • US Flag 
10:06AM EDT


 

Airport Tracker/Info


-or-


 

Live Flight TrackerFlight Track Log ✈ AAL2007 ✈ 01-May-2013 ✈ KORD - KAUS

Flight Track Log - Related Links

Times and Time Zones

All times are in EDT time to prevent confusion due to time zone crossing. See the AAL2007 flight status page for this flight to view local times or setup timezone preferences in your user account.

Time Position Orientation Groundspeed Altitude Reporting Facility
EDT Latitude Longitude Course Direction KTS MPH feet Rate Location/Type
06:44PM 41.9333 -87.9167 207° Southwest 177 204 2,200  Level Chicago TRACON
06:45PM 41.9000 -87.9667 228° Southwest 223 257 4,200 1,620 Climbing Chicago TRACON
06:47PM 41.8214 -88.0150 205° Southwest 239 275 6,300 2,340 Climbing Chicago Center
06:48PM 41.6132 -88.2748 197° South  Level Estimated
06:48PM 41.7397 -88.0486 197° South 258 297 10,300  Level Chicago Center
06:49PM 41.5209 -88.3661 194° South  Level Estimated
06:49PM 41.6681 -88.0775 197° South 271 312 12,800  Level Chicago Center
06:50PM 41.4339 -88.4520 207° Southwest  Level Estimated
06:50PM 41.5911 -88.1078 196° South 287 330 15,500  Level Chicago Center
06:51PM 41.5100 -88.1397 196° South 306 352 17,700 1,920 Climbing Chicago Center
06:52PM 41.4081 -88.1794 196° South 329 379 19,600 1,140 Climbing Chicago Center
06:53PM 41.3089 -88.2236 198° South 381 438 20,100 1,200 Climbing Chicago Center
06:54PM 41.1994 -88.2733 199° South 414 476 22,100 1,920 Climbing Chicago Center
06:55PM 41.0867 -88.3244 199° South 425 489 24,100 1,980 Climbing Chicago Center
06:56PM 40.9472 -88.3869 199° South 441 507 26,200 1,740 Climbing Chicago Center
06:57PM 40.8267 -88.4408 199° South 458 527 27,700 1,680 Climbing Chicago Center
06:58PM 40.7247 -88.5406 217° Southwest 465 535 29,700 1,800 Climbing Chicago Center
06:59PM 40.6278 -88.6419 218° Southwest 451 519 31,500 1,020 Climbing Chicago Center
07:00PM 40.5331 -88.7447 220° Southwest 446 513 31,900 240 Climbing Chicago Center
07:01PM 40.4236 -88.8594 219° Southwest 441 507 32,000 420 Climbing Chicago Center
07:02PM 40.3275 -88.9622 219° Southwest 443 510 32,800 900 Climbing Chicago Center
07:03PM 40.2336 -89.0619 219° Southwest 435 501 33,900 540 Climbing Chicago Center
07:05PM 40.1425 -89.1569 219° Southwest 422 486 34,000  Climbing Chicago Center
07:05PM 40.0689 -89.2344 219° Southwest 420 483 34,000  Level Kansas City Center
07:06PM 39.9781 -89.3300 219° Southwest 418 481 34,000 480 Level Kansas City Center
07:07PM 39.8881 -89.4250 219° Southwest 417 480 35,000 900 Climbing Kansas City Center
07:08PM 39.7808 -89.5361 219° Southwest 412 474 35,900 480 Climbing Kansas City Center
07:09PM 39.6925 -89.6297 219° Southwest 410 472 36,000  Climbing Kansas City Center
07:10PM 39.6056 -89.7219 219° Southwest 408 470 36,000 -60 Level Kansas City Center
07:12PM 39.5178 -89.8122 218° Southwest 406 467 35,900 -60 Descending Kansas City Center
07:13PM 39.4306 -89.9000 218° Southwest 401 461 35,900  Level Kansas City Center
07:14PM 39.3447 -89.9892 219° Southwest 398 458 35,900  Level Kansas City Center
07:15PM 39.2394 -90.0969 218° Southwest 401 461 35,900  Level Kansas City Center
07:16PM 39.1511 -90.1875 218° Southwest 404 465 36,000 60 Climbing Kansas City Center
07:17PM 39.0633 -90.2778 219° Southwest 405 466 36,100  Climbing Kansas City Center
07:18PM 38.9750 -90.3683 219° Southwest 408 470 36,000 -60 Descending Kansas City Center
07:19PM 38.8761 -90.4714 219° Southwest 405 466 36,000  Level Kansas City Center
07:20PM 38.7867 -90.5686 220° Southwest 414 476 36,100  Climbing Kansas City Center
07:21PM 38.7033 -90.6639 222° Southwest 401 461 36,000 -60 Descending Kansas City Center
07:22PM 38.6192 -90.7636 223° Southwest 411 473 36,000 -60 Level Kansas City Center
07:23PM 38.5369 -90.8569 222° Southwest 408 470 35,900 -60 Descending Kansas City Center
07:24PM 38.4389 -90.9692 222° Southwest 401 461 35,900  Level Kansas City Center
07:25PM 38.3561 -91.0611 221° Southwest 397 457 35,900  Level Kansas City Center
07:26PM 38.2736 -91.1569 222° Southwest 403 464 35,900 60 Level Kansas City Center
07:27PM 38.1883 -91.2519 221° Southwest 407 468 36,100 60 Climbing Kansas City Center
07:28PM 38.1003 -91.3522 222° Southwest 408 470 36,100 -60 Level Kansas City Center
07:29PM 38.0161 -91.4483 222° Southwest 407 468 36,000 -60 Descending Kansas City Center
07:30PM 37.9311 -91.5436 221° Southwest 405 466 36,000  Level Kansas City Center
07:31PM 37.8286 -91.6581 221° Southwest 407 468 36,000  Level Kansas City Center
07:32PM 37.7439 -91.7519 221° Southwest 403 464 36,000 -60 Level Kansas City Center
07:33PM 37.6592 -91.8475 222° Southwest 404 465 35,900  Descending Kansas City Center
07:34PM 37.5736 -91.9422 221° Southwest 405 466 36,000  Climbing Kansas City Center
07:35PM 37.4872 -92.0358 221° Southwest 405 466 35,900  Descending Kansas City Center
07:36PM 37.3936 -92.1189 215° Southwest 408 470 36,000  Climbing Kansas City Center
07:37PM 37.3011 -92.2042 216° Southwest 408 470 36,000 -60 Level Kansas City Center
07:38PM 37.2086 -92.2911 217° Southwest 411 473 35,900  Descending Kansas City Center
07:39PM 37.1153 -92.3761 216° Southwest 412 474 36,000  Climbing Kansas City Center
07:40PM 37.0031 -92.4783 216° Southwest 413 475 36,000  Level Kansas City Center
07:41PM 36.9097 -92.5639 216° Southwest 413 475 36,000  Level Kansas City Center
07:42PM 36.8342 -92.6356 217° Southwest 416 479 36,000  Level Memphis Center
07:43PM 36.7408 -92.7208 216° Southwest 416 479 36,000  Level Memphis Center
07:44PM 36.6497 -92.8036 216° Southwest 416 479 36,000  Level Memphis Center
07:45PM 36.5542 -92.8858 215° Southwest 416 479 36,000  Level Memphis Center
07:46PM 36.4797 -92.9583 218° Southwest 416 479 36,000  Level Memphis Center
07:47PM 36.3736 -93.0478 214° Southwest 421 484 36,000  Level Memphis Center
07:48PM 36.2781 -93.1322 215° Southwest 421 484 36,100  Climbing Memphis Center
07:49PM 36.1864 -93.2164 217° Southwest 421 484 36,000 -60 Descending Memphis Center
07:50PM 36.0928 -93.3006 216° Southwest 416 479 36,000 -60 Level Memphis Center
07:51PM 35.9861 -93.3942 215° Southwest 421 484 35,900 -60 Descending Memphis Center
07:52PM 35.8925 -93.4753 215° Southwest 421 484 35,900  Level Memphis Center
07:53PM 35.7986 -93.5589 216° Southwest 416 479 36,000  Climbing Memphis Center
07:54PM 35.7044 -93.6447 217° Southwest 421 484 35,900  Descending Memphis Center
07:55PM 35.6064 -93.7275 214° Southwest 421 484 36,000  Climbing Memphis Center
07:56PM 35.5103 -93.8106 215° Southwest 421 484 36,000  Level Memphis Center
07:57PM 35.4119 -93.8956 215° Southwest 427 491 36,100  Climbing Memphis Center
07:58PM 35.3136 -93.9778 214° Southwest 432 497 36,000 -60 Descending Memphis Center
08:00PM 35.1525 -94.1203 216° Southwest 439 505 36,000  Level Fort Worth Center
08:01PM 35.0525 -94.2053 215° Southwest 439 505 36,000  Level Fort Worth Center
08:02PM 34.9464 -94.3031 217° Southwest 446 513 36,000  Level Fort Worth Center
08:03PM 34.8483 -94.3850 214° Southwest 446 513 36,000  Level Fort Worth Center
08:04PM 34.7503 -94.4694 215° Southwest 441 507 36,000  Level Fort Worth Center
08:05PM 34.6478 -94.5561 215° Southwest 447 514 36,000  Level Fort Worth Center
08:06PM 34.5475 -94.6428 215° Southwest 447 514 36,000  Level Fort Worth Center
08:07PM 34.4450 -94.7267 214° Southwest 447 514 36,000 -60 Level Fort Worth Center
08:08PM 34.3425 -94.8128 215° Southwest 447 514 35,900 -60 Descending Fort Worth Center
08:09PM 34.2400 -94.8989 215° Southwest 452 520 35,900  Level Fort Worth Center
08:10PM 34.1375 -94.9869 215° Southwest 457 526 36,000 60 Climbing Fort Worth Center
08:11PM 34.0325 -95.0728 214° Southwest 462 532 36,100  Climbing Fort Worth Center
08:12PM 33.9278 -95.1606 215° Southwest 462 532 36,100  Level Fort Worth Center
08:13PM 33.8208 -95.2483 214° Southwest 462 532 36,100 -60 Level Fort Worth Center
08:14PM 33.7158 -95.3333 214° Southwest 462 532 36,000 -120 Descending Fort Worth Center
08:15PM 33.6150 -95.4181 215° Southwest 462 532 35,900 -840 Descending Fort Worth Center
08:16PM 33.5097 -95.5028 214° Southwest 462 532 34,400 -1,680 Descending Fort Worth Center
08:17PM 33.4047 -95.5869 214° Southwest 462 532 32,600 -1,200 Descending Fort Worth Center
08:18PM 33.3181 -95.6608 215° Southwest 439 505 32,000 -300 Descending Fort Worth Center
08:19PM 33.2067 -95.7525 215° Southwest 444 511 32,000  Level Fort Worth Center
08:20PM 33.1114 -95.8286 214° Southwest 444 511 32,000  Level Fort Worth Center
08:21PM 32.9978 -95.9197 214° Southwest 455 524 32,000  Level Fort Worth Center
08:22PM 32.9028 -95.9981 215° Southwest 467 537 32,000  Level Fort Worth Center
08:23PM 32.7847 -96.0914 214° Southwest 467 537 32,000  Level Fort Worth Center
08:25PM 32.5672 -96.2647 214° Southwest 467 537 32,000  Level Fort Worth Center
08:26PM 32.4614 -96.3522 215° Southwest 467 537 32,000  Level Fort Worth Center
08:27PM 32.3536 -96.4394 214° Southwest 472 543 32,000  Level Fort Worth Center
08:28PM 32.2436 -96.5267 214° Southwest 472 543 32,000 -120 Level Fort Worth Center
08:29PM 32.1461 -96.5989 212° Southwest 477 549 31,800 -840 Descending Fort Worth Center
08:30PM 32.0358 -96.6903 215° Southwest 477 549 30,400 -1,500 Descending Fort Worth Center
08:31PM 31.9133 -96.7869 214° Southwest 483 556 28,800 -1,560 Descending Fort Worth Center
08:32PM 31.8008 -96.8731 213° Southwest 489 563 27,300 -1,500 Descending Fort Worth Center
08:33PM 31.6928 -96.9592 214° Southwest 489 563 25,900 -1,440 Descending Fort Worth Center
08:34PM 31.5864 -97.0378 212° Southwest 475 547 24,500 -1,440 Descending Fort Worth Center
08:35PM 31.4811 -97.1028 208° Southwest 440 506 23,100 -1,320 Descending Houston Center
08:36PM 31.3644 -97.1489 199° South 438 504 22,000 -540 Descending Houston Center
08:37PM 31.2500 -97.1928 198° South 430 495 22,000 -1,020 Level Houston Center
08:38PM 31.1344 -97.2386 199° South 434 499 20,000 -2,280 Descending Houston Center
08:39PM 31.0186 -97.2844 199° South 437 503 17,400 -2,520 Descending Houston Center
08:40PM 30.9111 -97.3261 198° South 428 493 14,900 -2,400 Descending Houston Center
08:41PM 30.7886 -97.3739 199° South 402 463 12,500 -1,860 Descending Houston Center
08:42PM 30.7128 -97.4406 217° Southwest 344 396 11,200 -1,500 Descending Houston Center
08:43PM 30.6464 -97.5047 220° Southwest 316 364 9,400 -1,620 Descending Houston Center
08:44PM 30.5842 -97.5686 221° Southwest 300 345 7,900 -1,380 Descending Houston Center
08:45PM 30.5264 -97.6317 223° Southwest 288 331 6,600 -1,080 Descending Houston Center
08:46PM 30.4678 -97.6736 212° Southwest 249 287 5,800 -900 Descending Houston Center
08:47PM 30.4042 -97.6858 189° South 233 268 4,800 -1,020 Descending Houston Center